sensor_id;sensor_type;location;lat;lon;timestamp;P1;durP1;ratioP1;P2;durP2;ratioP2
64457;SDS011;58438;51.200;7.252;2022-11-15T00:01:23;20.65;;;10.65;;
64457;SDS011;58438;51.200;7.252;2022-11-15T00:04:11;21.58;;;10.38;;
64457;SDS011;58438;51.200;7.252;2022-11-15T00:06:58;20.55;;;10.88;;
64457;SDS011;58438;51.200;7.252;2022-11-15T00:09:45;20.48;;;11.25;;
64457;SDS011;58438;51.200;7.252;2022-11-15T00:12:34;22.23;;;11.52;;
64457;SDS011;58438;51.200;7.252;2022-11-15T00:15:21;23.88;;;11.27;;
64457;SDS011;58438;51.200;7.252;2022-11-15T00:18:11;18.58;;;10.57;;
64457;SDS011;58438;51.200;7.252;2022-11-15T00:21:03;19.92;;;11.02;;
64457;SDS011;58438;51.200;7.252;2022-11-15T00:23:50;23.27;;;12.48;;
64457;SDS011;58438;51.200;7.252;2022-11-15T00:26:37;23.30;;;10.98;;
64457;SDS011;58438;51.200;7.252;2022-11-15T00:29:26;20.98;;;11.02;;
64457;SDS011;58438;51.200;7.252;2022-11-15T00:32:13;20.80;;;10.88;;
64457;SDS011;58438;51.200;7.252;2022-11-15T00:35:00;22.65;;;10.70;;
64457;SDS011;58438;51.200;7.252;2022-11-15T00:37:48;19.13;;;10.45;;
64457;SDS011;58438;51.200;7.252;2022-11-15T00:40:35;19.23;;;10.52;;
64457;SDS011;58438;51.200;7.252;2022-11-15T00:43:22;20.73;;;10.48;;
64457;SDS011;58438;51.200;7.252;2022-11-15T00:46:11;23.27;;;11.05;;
64457;SDS011;58438;51.200;7.252;2022-11-15T00:48:59;18.83;;;10.57;;
64457;SDS011;58438;51.200;7.252;2022-11-15T00:51:46;21.83;;;11.35;;
64457;SDS011;58438;51.200;7.252;2022-11-15T00:54:33;21.83;;;10.63;;
64457;SDS011;58438;51.200;7.252;2022-11-15T00:57:20;19.38;;;9.50;;
64457;SDS011;58438;51.200;7.252;2022-11-15T01:00:08;21.38;;;10.05;;
64457;SDS011;58438;51.200;7.252;2022-11-15T01:02:57;22.80;;;10.90;;
64457;SDS011;58438;51.200;7.252;2022-11-15T01:05:44;18.20;;;10.07;;
64457;SDS011;58438;51.200;7.252;2022-11-15T01:08:31;23.33;;;11.35;;
64457;SDS011;58438;51.200;7.252;2022-11-15T01:11:19;18.27;;;10.50;;
64457;SDS011;58438;51.200;7.252;2022-11-15T01:14:07;18.92;;;10.85;;
64457;SDS011;58438;51.200;7.252;2022-11-15T01:16:56;22.70;;;11.75;;
64457;SDS011;58438;51.200;7.252;2022-11-15T01:19:47;20.50;;;10.93;;
64457;SDS011;58438;51.200;7.252;2022-11-15T01:22:37;24.23;;;11.50;;
64457;SDS011;58438;51.200;7.252;2022-11-15T01:25:27;20.55;;;10.25;;
64457;SDS011;58438;51.200;7.252;2022-11-15T01:28:17;20.35;;;10.40;;
64457;SDS011;58438;51.200;7.252;2022-11-15T01:31:08;24.08;;;11.32;;
64457;SDS011;58438;51.200;7.252;2022-11-15T01:33:58;25.20;;;10.80;;
64457;SDS011;58438;51.200;7.252;2022-11-15T01:36:49;24.90;;;12.30;;
64457;SDS011;58438;51.200;7.252;2022-11-15T01:39:38;20.55;;;10.57;;
64457;SDS011;58438;51.200;7.252;2022-11-15T01:42:28;19.90;;;11.05;;
64457;SDS011;58438;51.200;7.252;2022-11-15T01:45:17;21.45;;;11.88;;
64457;SDS011;58438;51.200;7.252;2022-11-15T01:48:08;20.73;;;11.15;;
64457;SDS011;58438;51.200;7.252;2022-11-15T01:50:59;21.20;;;10.63;;
64457;SDS011;58438;51.200;7.252;2022-11-15T01:53:52;20.50;;;11.52;;
64457;SDS011;58438;51.200;7.252;2022-11-15T01:56:43;26.05;;;10.98;;
64457;SDS011;58438;51.200;7.252;2022-11-15T01:59:35;26.63;;;11.73;;
64457;SDS011;58438;51.200;7.252;2022-11-15T02:02:26;19.30;;;10.93;;
64457;SDS011;58438;51.200;7.252;2022-11-15T02:05:16;17.17;;;11.15;;
64457;SDS011;58438;51.200;7.252;2022-11-15T02:08:05;21.60;;;11.77;;
64457;SDS011;58438;51.200;7.252;2022-11-15T02:10:55;26.27;;;10.98;;
64457;SDS011;58438;51.200;7.252;2022-11-15T02:13:45;20.88;;;10.20;;
64457;SDS011;58438;51.200;7.252;2022-11-15T02:16:35;21.48;;;10.85;;
64457;SDS011;58438;51.200;7.252;2022-11-15T02:19:29;25.50;;;11.32;;
64457;SDS011;58438;51.200;7.252;2022-11-15T02:22:22;20.33;;;11.38;;
64457;SDS011;58438;51.200;7.252;2022-11-15T02:25:16;23.77;;;11.40;;
64457;SDS011;58438;51.200;7.252;2022-11-15T02:28:16;18.42;;;9.98;;
64457;SDS011;58438;51.200;7.252;2022-11-15T02:31:10;22.05;;;11.30;;
64457;SDS011;58438;51.200;7.252;2022-11-15T02:33:59;20.02;;;10.65;;
64457;SDS011;58438;51.200;7.252;2022-11-15T02:36:49;21.00;;;11.13;;
64457;SDS011;58438;51.200;7.252;2022-11-15T02:39:41;23.45;;;11.15;;
64457;SDS011;58438;51.200;7.252;2022-11-15T02:42:32;21.75;;;10.55;;
64457;SDS011;58438;51.200;7.252;2022-11-15T02:45:39;20.00;;;10.30;;
64457;SDS011;58438;51.200;7.252;2022-11-15T02:48:28;18.08;;;10.52;;
64457;SDS011;58438;51.200;7.252;2022-11-15T02:51:16;19.92;;;10.32;;
64457;SDS011;58438;51.200;7.252;2022-11-15T02:54:03;19.70;;;10.40;;
64457;SDS011;58438;51.200;7.252;2022-11-15T02:56:51;23.55;;;11.85;;
64457;SDS011;58438;51.200;7.252;2022-11-15T02:59:52;18.58;;;9.48;;
64457;SDS011;58438;51.200;7.252;2022-11-15T03:02:51;17.33;;;9.70;;
64457;SDS011;58438;51.200;7.252;2022-11-15T03:05:44;18.13;;;9.23;;
64457;SDS011;58438;51.200;7.252;2022-11-15T03:08:35;18.40;;;9.40;;
64457;SDS011;58438;51.200;7.252;2022-11-15T03:11:24;17.77;;;9.93;;
64457;SDS011;58438;51.200;7.252;2022-11-15T03:14:14;19.83;;;9.77;;
64457;SDS011;58438;51.200;7.252;2022-11-15T03:17:05;20.77;;;9.43;;
64457;SDS011;58438;51.200;7.252;2022-11-15T03:19:55;17.30;;;8.88;;
64457;SDS011;58438;51.200;7.252;2022-11-15T03:22:45;20.00;;;9.98;;
64457;SDS011;58438;51.200;7.252;2022-11-15T03:25:34;17.25;;;9.80;;
64457;SDS011;58438;51.200;7.252;2022-11-15T03:28:25;18.08;;;9.95;;
64457;SDS011;58438;51.200;7.252;2022-11-15T03:31:14;16.77;;;9.38;;
64457;SDS011;58438;51.200;7.252;2022-11-15T03:34:21;14.45;;;9.00;;
64457;SDS011;58438;51.200;7.252;2022-11-15T03:37:10;16.00;;;9.32;;
64457;SDS011;58438;51.200;7.252;2022-11-15T03:40:00;16.90;;;8.57;;
64457;SDS011;58438;51.200;7.252;2022-11-15T03:42:50;15.18;;;8.60;;
64457;SDS011;58438;51.200;7.252;2022-11-15T03:45:43;16.45;;;9.00;;
64457;SDS011;58438;51.200;7.252;2022-11-15T03:48:33;18.15;;;9.82;;
64457;SDS011;58438;51.200;7.252;2022-11-15T03:51:21;15.35;;;8.30;;
64457;SDS011;58438;51.200;7.252;2022-11-15T03:54:10;17.75;;;8.18;;
64457;SDS011;58438;51.200;7.252;2022-11-15T03:57:00;16.35;;;8.07;;
64457;SDS011;58438;51.200;7.252;2022-11-15T03:59:47;16.15;;;8.70;;
64457;SDS011;58438;51.200;7.252;2022-11-15T04:02:34;16.25;;;9.68;;
64457;SDS011;58438;51.200;7.252;2022-11-15T04:05:21;17.15;;;8.63;;
64457;SDS011;58438;51.200;7.252;2022-11-15T04:08:09;19.75;;;9.77;;
64457;SDS011;58438;51.200;7.252;2022-11-15T04:10:56;17.85;;;9.02;;
64457;SDS011;58438;51.200;7.252;2022-11-15T04:13:45;16.35;;;8.75;;
64457;SDS011;58438;51.200;7.252;2022-11-15T04:16:32;16.67;;;9.68;;
64457;SDS011;58438;51.200;7.252;2022-11-15T04:19:25;18.77;;;9.70;;
64457;SDS011;58438;51.200;7.252;2022-11-15T04:22:30;18.20;;;9.68;;
64457;SDS011;58438;51.200;7.252;2022-11-15T04:25:34;17.70;;;9.55;;
64457;SDS011;58438;51.200;7.252;2022-11-15T04:28:22;17.60;;;10.23;;
64457;SDS011;58438;51.200;7.252;2022-11-15T04:31:10;22.85;;;10.73;;
64457;SDS011;58438;51.200;7.252;2022-11-15T04:33:58;16.15;;;9.50;;
64457;SDS011;58438;51.200;7.252;2022-11-15T04:36:45;19.50;;;9.80;;
64457;SDS011;58438;51.200;7.252;2022-11-15T04:39:50;16.63;;;9.63;;
64457;SDS011;58438;51.200;7.252;2022-11-15T04:42:37;18.50;;;8.52;;
64457;SDS011;58438;51.200;7.252;2022-11-15T04:45:24;19.20;;;9.90;;
64457;SDS011;58438;51.200;7.252;2022-11-15T04:48:13;17.70;;;9.10;;
64457;SDS011;58438;51.200;7.252;2022-11-15T04:51:00;16.40;;;8.32;;
64457;SDS011;58438;51.200;7.252;2022-11-15T04:53:48;18.17;;;8.90;;
64457;SDS011;58438;51.200;7.252;2022-11-15T04:56:35;16.27;;;9.65;;
64457;SDS011;58438;51.200;7.252;2022-11-15T04:59:22;18.20;;;9.30;;
64457;SDS011;58438;51.200;7.252;2022-11-15T05:02:09;16.77;;;9.20;;
64457;SDS011;58438;51.200;7.252;2022-11-15T05:04:58;16.40;;;8.77;;
64457;SDS011;58438;51.200;7.252;2022-11-15T05:07:44;17.42;;;8.73;;
64457;SDS011;58438;51.200;7.252;2022-11-15T05:10:31;17.23;;;9.07;;
64457;SDS011;58438;51.200;7.252;2022-11-15T05:13:19;17.83;;;9.13;;
64457;SDS011;58438;51.200;7.252;2022-11-15T05:16:06;18.95;;;9.60;;
64457;SDS011;58438;51.200;7.252;2022-11-15T05:18:53;15.80;;;8.82;;
64457;SDS011;58438;51.200;7.252;2022-11-15T05:21:42;19.13;;;9.02;;
64457;SDS011;58438;51.200;7.252;2022-11-15T05:24:29;14.07;;;7.55;;
64457;SDS011;58438;51.200;7.252;2022-11-15T05:27:17;13.82;;;8.68;;
64457;SDS011;58438;51.200;7.252;2022-11-15T05:30:04;12.88;;;8.02;;
64457;SDS011;58438;51.200;7.252;2022-11-15T05:32:52;12.85;;;8.30;;
64457;SDS011;58438;51.200;7.252;2022-11-15T05:35:42;12.95;;;7.90;;
64457;SDS011;58438;51.200;7.252;2022-11-15T05:38:33;13.73;;;7.18;;
64457;SDS011;58438;51.200;7.252;2022-11-15T05:41:20;12.80;;;8.25;;
64457;SDS011;58438;51.200;7.252;2022-11-15T05:44:09;15.45;;;7.88;;
64457;SDS011;58438;51.200;7.252;2022-11-15T05:46:57;12.13;;;6.72;;
64457;SDS011;58438;51.200;7.252;2022-11-15T05:49:44;13.43;;;7.95;;
64457;SDS011;58438;51.200;7.252;2022-11-15T05:52:33;12.45;;;6.93;;
64457;SDS011;58438;51.200;7.252;2022-11-15T05:55:23;13.00;;;7.90;;
64457;SDS011;58438;51.200;7.252;2022-11-15T05:58:11;13.07;;;7.35;;
64457;SDS011;58438;51.200;7.252;2022-11-15T06:00:58;14.23;;;7.35;;
64457;SDS011;58438;51.200;7.252;2022-11-15T06:03:46;11.75;;;6.72;;
64457;SDS011;58438;51.200;7.252;2022-11-15T06:06:33;13.20;;;7.43;;
64457;SDS011;58438;51.200;7.252;2022-11-15T06:09:20;15.02;;;7.03;;
64457;SDS011;58438;51.200;7.252;2022-11-15T06:12:09;15.25;;;7.38;;
64457;SDS011;58438;51.200;7.252;2022-11-15T06:14:56;12.98;;;6.75;;
64457;SDS011;58438;51.200;7.252;2022-11-15T06:17:43;12.60;;;5.97;;
64457;SDS011;58438;51.200;7.252;2022-11-15T06:20:30;13.68;;;6.38;;
64457;SDS011;58438;51.200;7.252;2022-11-15T06:23:18;11.10;;;6.70;;
64457;SDS011;58438;51.200;7.252;2022-11-15T06:26:05;9.63;;;5.95;;
64457;SDS011;58438;51.200;7.252;2022-11-15T06:28:54;12.40;;;6.13;;
64457;SDS011;58438;51.200;7.252;2022-11-15T06:31:41;9.75;;;5.72;;
64457;SDS011;58438;51.200;7.252;2022-11-15T06:34:28;9.15;;;5.03;;
64457;SDS011;58438;51.200;7.252;2022-11-15T06:37:15;11.48;;;5.13;;
64457;SDS011;58438;51.200;7.252;2022-11-15T06:40:03;6.47;;;4.57;;
64457;SDS011;58438;51.200;7.252;2022-11-15T06:42:50;7.85;;;4.40;;
64457;SDS011;58438;51.200;7.252;2022-11-15T06:45:39;8.23;;;4.93;;
64457;SDS011;58438;51.200;7.252;2022-11-15T06:48:26;8.38;;;5.28;;
64457;SDS011;58438;51.200;7.252;2022-11-15T06:51:13;8.80;;;5.20;;
64457;SDS011;58438;51.200;7.252;2022-11-15T06:54:01;7.88;;;4.55;;
64457;SDS011;58438;51.200;7.252;2022-11-15T06:56:48;10.23;;;5.30;;
64457;SDS011;58438;51.200;7.252;2022-11-15T06:59:35;8.10;;;5.20;;
64457;SDS011;58438;51.200;7.252;2022-11-15T07:02:27;9.30;;;4.85;;
64457;SDS011;58438;51.200;7.252;2022-11-15T07:05:14;7.10;;;5.10;;
64457;SDS011;58438;51.200;7.252;2022-11-15T07:08:02;7.32;;;4.95;;
64457;SDS011;58438;51.200;7.252;2022-11-15T07:10:49;9.07;;;5.53;;
64457;SDS011;58438;51.200;7.252;2022-11-15T07:13:36;11.13;;;4.65;;
64457;SDS011;58438;51.200;7.252;2022-11-15T07:16:24;6.90;;;5.00;;
64457;SDS011;58438;51.200;7.252;2022-11-15T07:19:12;9.40;;;5.35;;
64457;SDS011;58438;51.200;7.252;2022-11-15T07:22:00;6.97;;;4.50;;
64457;SDS011;58438;51.200;7.252;2022-11-15T07:24:47;7.90;;;4.57;;
64457;SDS011;58438;51.200;7.252;2022-11-15T07:27:35;7.25;;;4.68;;
64457;SDS011;58438;51.200;7.252;2022-11-15T07:30:22;9.48;;;4.70;;
64457;SDS011;58438;51.200;7.252;2022-11-15T07:33:09;7.95;;;4.57;;
64457;SDS011;58438;51.200;7.252;2022-11-15T07:35:59;5.63;;;3.88;;
64457;SDS011;58438;51.200;7.252;2022-11-15T07:38:48;6.97;;;4.50;;
64457;SDS011;58438;51.200;7.252;2022-11-15T07:41:35;10.38;;;5.13;;
64457;SDS011;58438;51.200;7.252;2022-11-15T07:44:25;6.28;;;4.03;;
64457;SDS011;58438;51.200;7.252;2022-11-15T07:47:12;6.63;;;4.10;;
64457;SDS011;58438;51.200;7.252;2022-11-15T07:49:59;7.30;;;3.92;;
64457;SDS011;58438;51.200;7.252;2022-11-15T07:52:52;6.20;;;4.00;;
64457;SDS011;58438;51.200;7.252;2022-11-15T07:55:40;5.38;;;3.60;;
64457;SDS011;58438;51.200;7.252;2022-11-15T07:58:27;5.32;;;3.88;;
64457;SDS011;58438;51.200;7.252;2022-11-15T08:01:14;4.95;;;3.67;;
64457;SDS011;58438;51.200;7.252;2022-11-15T08:04:01;9.68;;;4.53;;
64457;SDS011;58438;51.200;7.252;2022-11-15T08:06:49;5.47;;;3.67;;
64457;SDS011;58438;51.200;7.252;2022-11-15T08:09:37;6.03;;;3.83;;
64457;SDS011;58438;51.200;7.252;2022-11-15T08:12:25;7.88;;;3.67;;
64457;SDS011;58438;51.200;7.252;2022-11-15T08:15:12;5.63;;;3.35;;
64457;SDS011;58438;51.200;7.252;2022-11-15T08:18:02;4.50;;;3.10;;
64457;SDS011;58438;51.200;7.252;2022-11-15T08:20:49;5.18;;;2.88;;
64457;SDS011;58438;51.200;7.252;2022-11-15T08:23:36;5.82;;;3.10;;
64457;SDS011;58438;51.200;7.252;2022-11-15T08:26:25;6.78;;;3.08;;
64457;SDS011;58438;51.200;7.252;2022-11-15T08:29:14;4.18;;;3.00;;
64457;SDS011;58438;51.200;7.252;2022-11-15T08:32:02;3.63;;;2.40;;
64457;SDS011;58438;51.200;7.252;2022-11-15T08:34:50;3.88;;;2.42;;
64457;SDS011;58438;51.200;7.252;2022-11-15T08:37:37;3.55;;;2.35;;
64457;SDS011;58438;51.200;7.252;2022-11-15T08:40:25;4.85;;;2.75;;
64457;SDS011;58438;51.200;7.252;2022-11-15T08:43:13;5.70;;;2.58;;
64457;SDS011;58438;51.200;7.252;2022-11-15T08:46:01;3.55;;;2.53;;
64457;SDS011;58438;51.200;7.252;2022-11-15T08:48:48;4.72;;;2.42;;
64457;SDS011;58438;51.200;7.252;2022-11-15T08:51:35;4.30;;;2.85;;
64457;SDS011;58438;51.200;7.252;2022-11-15T08:54:23;4.50;;;2.88;;
64457;SDS011;58438;51.200;7.252;2022-11-15T08:57:10;3.67;;;2.47;;
64457;SDS011;58438;51.200;7.252;2022-11-15T08:59:59;6.05;;;2.30;;
64457;SDS011;58438;51.200;7.252;2022-11-15T09:02:46;3.53;;;2.33;;
64457;SDS011;58438;51.200;7.252;2022-11-15T09:05:35;4.25;;;3.05;;
64457;SDS011;58438;51.200;7.252;2022-11-15T09:08:22;4.43;;;2.65;;
64457;SDS011;58438;51.200;7.252;2022-11-15T09:11:29;3.95;;;2.33;;
64457;SDS011;58438;51.200;7.252;2022-11-15T09:14:17;6.03;;;2.50;;
64457;SDS011;58438;51.200;7.252;2022-11-15T09:17:08;4.18;;;2.72;;
64457;SDS011;58438;51.200;7.252;2022-11-15T09:19:55;3.92;;;2.40;;
64457;SDS011;58438;51.200;7.252;2022-11-15T09:22:42;4.03;;;2.50;;
64457;SDS011;58438;51.200;7.252;2022-11-15T09:25:29;3.05;;;2.30;;
64457;SDS011;58438;51.200;7.252;2022-11-15T09:28:17;3.00;;;2.00;;
64457;SDS011;58438;51.200;7.252;2022-11-15T09:31:05;3.80;;;2.40;;
64457;SDS011;58438;51.200;7.252;2022-11-15T09:33:53;4.25;;;2.33;;
64457;SDS011;58438;51.200;7.252;2022-11-15T09:36:41;3.30;;;2.47;;
64457;SDS011;58438;51.200;7.252;2022-11-15T09:39:28;5.13;;;3.45;;
64457;SDS011;58438;51.200;7.252;2022-11-15T09:42:20;3.65;;;2.45;;
64457;SDS011;58438;51.200;7.252;2022-11-15T09:48:08;3.97;;;2.20;;
64457;SDS011;58438;51.200;7.252;2022-11-15T09:51:01;4.50;;;1.92;;
64457;SDS011;58438;51.200;7.252;2022-11-15T09:53:51;3.05;;;1.83;;
64457;SDS011;58438;51.200;7.252;2022-11-15T09:57:03;2.58;;;1.83;;
64457;SDS011;58438;51.200;7.252;2022-11-15T10:00:00;2.95;;;1.65;;
64457;SDS011;58438;51.200;7.252;2022-11-15T10:03:10;2.47;;;1.50;;
64457;SDS011;58438;51.200;7.252;2022-11-15T10:05:59;2.95;;;1.92;;
64457;SDS011;58438;51.200;7.252;2022-11-15T10:08:50;2.72;;;1.70;;
64457;SDS011;58438;51.200;7.252;2022-11-15T10:11:38;5.30;;;1.85;;
64457;SDS011;58438;51.200;7.252;2022-11-15T10:14:27;3.15;;;1.70;;
64457;SDS011;58438;51.200;7.252;2022-11-15T10:17:26;3.03;;;2.05;;
64457;SDS011;58438;51.200;7.252;2022-11-15T10:20:17;3.08;;;1.92;;
64457;SDS011;58438;51.200;7.252;2022-11-15T10:23:06;3.63;;;1.63;;
64457;SDS011;58438;51.200;7.252;2022-11-15T10:25:58;5.00;;;1.77;;
64457;SDS011;58438;51.200;7.252;2022-11-15T10:28:51;4.90;;;2.17;;
64457;SDS011;58438;51.200;7.252;2022-11-15T10:31:38;4.78;;;1.83;;
64457;SDS011;58438;51.200;7.252;2022-11-15T10:34:27;2.45;;;1.98;;
64457;SDS011;58438;51.200;7.252;2022-11-15T10:37:14;3.80;;;1.60;;
64457;SDS011;58438;51.200;7.252;2022-11-15T10:40:15;3.58;;;1.80;;
64457;SDS011;58438;51.200;7.252;2022-11-15T10:43:10;2.00;;;1.70;;
64457;SDS011;58438;51.200;7.252;2022-11-15T10:45:59;5.53;;;2.67;;
64457;SDS011;58438;51.200;7.252;2022-11-15T10:49:24;2.42;;;1.63;;
64457;SDS011;58438;51.200;7.252;2022-11-15T10:52:16;5.13;;;1.70;;
64457;SDS011;58438;51.200;7.252;2022-11-15T10:55:12;4.43;;;1.48;;
64457;SDS011;58438;51.200;7.252;2022-11-15T10:58:19;2.13;;;1.40;;
64457;SDS011;58438;51.200;7.252;2022-11-15T11:01:08;1.83;;;1.20;;
64457;SDS011;58438;51.200;7.252;2022-11-15T11:04:00;2.83;;;1.10;;
64457;SDS011;58438;51.200;7.252;2022-11-15T11:06:47;4.18;;;1.27;;
64457;SDS011;58438;51.200;7.252;2022-11-15T11:09:37;2.00;;;1.20;;
64457;SDS011;58438;51.200;7.252;2022-11-15T11:12:28;3.40;;;1.42;;
64457;SDS011;58438;51.200;7.252;2022-11-15T11:15:19;2.90;;;1.23;;
64457;SDS011;58438;51.200;7.252;2022-11-15T11:18:07;1.55;;;1.15;;
64457;SDS011;58438;51.200;7.252;2022-11-15T11:21:02;2.10;;;1.20;;
64457;SDS011;58438;51.200;7.252;2022-11-15T11:23:51;1.65;;;0.88;;
64457;SDS011;58438;51.200;7.252;2022-11-15T11:26:42;4.75;;;1.42;;
64457;SDS011;58438;51.200;7.252;2022-11-15T11:29:34;2.40;;;1.10;;
64457;SDS011;58438;51.200;7.252;2022-11-15T11:32:34;2.05;;;1.25;;
64457;SDS011;58438;51.200;7.252;2022-11-15T11:35:24;2.67;;;1.10;;
64457;SDS011;58438;51.200;7.252;2022-11-15T11:38:19;4.10;;;1.25;;
64457;SDS011;58438;51.200;7.252;2022-11-15T11:41:10;3.33;;;1.60;;
64457;SDS011;58438;51.200;7.252;2022-11-15T11:46:48;2.83;;;1.15;;
64457;SDS011;58438;51.200;7.252;2022-11-15T11:49:39;1.48;;;1.02;;
64457;SDS011;58438;51.200;7.252;2022-11-15T11:52:29;1.73;;;1.00;;
64457;SDS011;58438;51.200;7.252;2022-11-15T11:55:19;2.17;;;1.17;;
64457;SDS011;58438;51.200;7.252;2022-11-15T11:58:10;3.35;;;1.10;;
64457;SDS011;58438;51.200;7.252;2022-11-15T12:00:59;4.93;;;1.30;;
64457;SDS011;58438;51.200;7.252;2022-11-15T12:03:59;1.42;;;0.95;;
64457;SDS011;58438;51.200;7.252;2022-11-15T12:06:50;2.35;;;1.00;;
64457;SDS011;58438;51.200;7.252;2022-11-15T12:09:39;1.30;;;0.82;;
64457;SDS011;58438;51.200;7.252;2022-11-15T12:12:30;3.53;;;1.23;;
64457;SDS011;58438;51.200;7.252;2022-11-15T12:15:19;1.58;;;0.82;;
64457;SDS011;58438;51.200;7.252;2022-11-15T12:18:07;2.45;;;0.90;;
64457;SDS011;58438;51.200;7.252;2022-11-15T12:20:57;2.83;;;1.15;;
64457;SDS011;58438;51.200;7.252;2022-11-15T12:23:47;2.20;;;1.02;;
64457;SDS011;58438;51.200;7.252;2022-11-15T12:26:37;2.38;;;0.80;;
64457;SDS011;58438;51.200;7.252;2022-11-15T12:29:26;1.15;;;0.85;;
64457;SDS011;58438;51.200;7.252;2022-11-15T12:32:18;1.23;;;0.90;;
64457;SDS011;58438;51.200;7.252;2022-11-15T12:35:20;3.28;;;0.90;;
64457;SDS011;58438;51.200;7.252;2022-11-15T12:38:08;2.45;;;1.02;;
64457;SDS011;58438;51.200;7.252;2022-11-15T12:41:13;3.50;;;1.10;;
64457;SDS011;58438;51.200;7.252;2022-11-15T12:44:01;3.00;;;1.15;;
64457;SDS011;58438;51.200;7.252;2022-11-15T12:47:02;7.18;;;1.33;;
64457;SDS011;58438;51.200;7.252;2022-11-15T12:49:50;3.20;;;0.90;;
64457;SDS011;58438;51.200;7.252;2022-11-15T12:52:38;4.82;;;1.42;;
64457;SDS011;58438;51.200;7.252;2022-11-15T12:55:46;2.58;;;1.02;;
64457;SDS011;58438;51.200;7.252;2022-11-15T12:58:55;1.58;;;0.90;;
64457;SDS011;58438;51.200;7.252;2022-11-15T13:01:58;2.30;;;1.13;;
64457;SDS011;58438;51.200;7.252;2022-11-15T13:04:46;2.28;;;1.15;;
64457;SDS011;58438;51.200;7.252;2022-11-15T13:07:55;2.15;;;1.10;;
64457;SDS011;58438;51.200;7.252;2022-11-15T13:10:42;3.75;;;1.13;;
64457;SDS011;58438;51.200;7.252;2022-11-15T13:13:41;3.72;;;1.50;;
64457;SDS011;58438;51.200;7.252;2022-11-15T13:16:30;1.77;;;1.00;;
64457;SDS011;58438;51.200;7.252;2022-11-15T13:19:17;5.05;;;1.48;;
64457;SDS011;58438;51.200;7.252;2022-11-15T13:22:09;2.30;;;1.17;;
64457;SDS011;58438;51.200;7.252;2022-11-15T13:28:00;2.30;;;1.40;;
64457;SDS011;58438;51.200;7.252;2022-11-15T13:30:53;3.20;;;1.73;;
64457;SDS011;58438;51.200;7.252;2022-11-15T13:33:42;2.78;;;1.63;;
64457;SDS011;58438;51.200;7.252;2022-11-15T13:36:30;3.75;;;1.67;;
64457;SDS011;58438;51.200;7.252;2022-11-15T13:39:27;4.57;;;1.98;;
64457;SDS011;58438;51.200;7.252;2022-11-15T13:42:15;6.13;;;2.08;;
64457;SDS011;58438;51.200;7.252;2022-11-15T13:45:04;4.85;;;1.75;;
64457;SDS011;58438;51.200;7.252;2022-11-15T13:47:53;3.88;;;2.30;;
64457;SDS011;58438;51.200;7.252;2022-11-15T13:50:42;5.28;;;2.22;;
64457;SDS011;58438;51.200;7.252;2022-11-15T13:53:30;4.72;;;2.22;;
64457;SDS011;58438;51.200;7.252;2022-11-15T13:56:18;5.82;;;2.35;;
64457;SDS011;58438;51.200;7.252;2022-11-15T13:59:09;5.20;;;2.42;;
64457;SDS011;58438;51.200;7.252;2022-11-15T14:01:58;3.58;;;2.15;;
64457;SDS011;58438;51.200;7.252;2022-11-15T14:04:47;3.20;;;2.17;;
64457;SDS011;58438;51.200;7.252;2022-11-15T14:07:36;4.05;;;2.25;;
64457;SDS011;58438;51.200;7.252;2022-11-15T14:13:26;3.78;;;2.28;;
64457;SDS011;58438;51.200;7.252;2022-11-15T14:16:15;3.95;;;2.08;;
64457;SDS011;58438;51.200;7.252;2022-11-15T14:19:02;5.05;;;2.38;;
64457;SDS011;58438;51.200;7.252;2022-11-15T14:25:14;4.93;;;2.45;;
64457;SDS011;58438;51.200;7.252;2022-11-15T14:28:10;4.85;;;2.22;;
64457;SDS011;58438;51.200;7.252;2022-11-15T14:30:58;5.32;;;2.78;;
64457;SDS011;58438;51.200;7.252;2022-11-15T14:33:45;2.65;;;1.95;;
64457;SDS011;58438;51.200;7.252;2022-11-15T14:36:32;4.70;;;2.30;;
64457;SDS011;58438;51.200;7.252;2022-11-15T14:39:20;2.70;;;2.10;;
64457;SDS011;58438;51.200;7.252;2022-11-15T14:42:10;4.80;;;2.72;;
64457;SDS011;58438;51.200;7.252;2022-11-15T14:44:57;4.78;;;2.63;;
64457;SDS011;58438;51.200;7.252;2022-11-15T14:47:45;3.25;;;2.28;;
64457;SDS011;58438;51.200;7.252;2022-11-15T14:50:32;5.28;;;2.40;;
64457;SDS011;58438;51.200;7.252;2022-11-15T14:53:20;3.90;;;2.20;;
64457;SDS011;58438;51.200;7.252;2022-11-15T14:56:08;4.82;;;2.55;;
64457;SDS011;58438;51.200;7.252;2022-11-15T14:58:57;3.92;;;2.15;;
64457;SDS011;58438;51.200;7.252;2022-11-15T15:01:44;3.53;;;2.20;;
64457;SDS011;58438;51.200;7.252;2022-11-15T15:04:31;4.55;;;2.40;;
64457;SDS011;58438;51.200;7.252;2022-11-15T15:07:18;3.95;;;2.33;;
64457;SDS011;58438;51.200;7.252;2022-11-15T15:10:06;3.67;;;1.90;;
64457;SDS011;58438;51.200;7.252;2022-11-15T15:13:15;3.65;;;2.03;;
64457;SDS011;58438;51.200;7.252;2022-11-15T15:16:05;5.70;;;2.35;;
64457;SDS011;58438;51.200;7.252;2022-11-15T15:18:52;3.35;;;2.45;;
64457;SDS011;58438;51.200;7.252;2022-11-15T15:21:40;5.25;;;2.30;;
64457;SDS011;58438;51.200;7.252;2022-11-15T15:24:27;3.15;;;2.40;;
64457;SDS011;58438;51.200;7.252;2022-11-15T15:27:14;5.97;;;2.60;;
64457;SDS011;58438;51.200;7.252;2022-11-15T15:30:02;3.45;;;2.30;;
64457;SDS011;58438;51.200;7.252;2022-11-15T15:32:50;6.50;;;2.40;;
64457;SDS011;58438;51.200;7.252;2022-11-15T15:35:37;4.70;;;2.47;;
64457;SDS011;58438;51.200;7.252;2022-11-15T15:38:24;3.22;;;2.33;;
64457;SDS011;58438;51.200;7.252;2022-11-15T15:41:12;4.43;;;2.58;;
64457;SDS011;58438;51.200;7.252;2022-11-15T15:44:00;3.17;;;2.42;;
64457;SDS011;58438;51.200;7.252;2022-11-15T15:46:47;4.63;;;2.63;;
64457;SDS011;58438;51.200;7.252;2022-11-15T15:49:35;3.95;;;2.58;;
64457;SDS011;58438;51.200;7.252;2022-11-15T15:52:22;4.18;;;2.60;;
64457;SDS011;58438;51.200;7.252;2022-11-15T15:55:10;5.25;;;2.30;;
64457;SDS011;58438;51.200;7.252;2022-11-15T15:57:58;4.03;;;2.60;;
64457;SDS011;58438;51.200;7.252;2022-11-15T16:00:45;3.95;;;2.50;;
64457;SDS011;58438;51.200;7.252;2022-11-15T16:03:32;4.80;;;2.55;;
64457;SDS011;58438;51.200;7.252;2022-11-15T16:06:32;3.13;;;2.42;;
64457;SDS011;58438;51.200;7.252;2022-11-15T16:09:20;4.80;;;2.55;;
64457;SDS011;58438;51.200;7.252;2022-11-15T16:12:28;4.72;;;2.55;;
64457;SDS011;58438;51.200;7.252;2022-11-15T16:15:16;6.13;;;2.90;;
64457;SDS011;58438;51.200;7.252;2022-11-15T16:18:03;5.88;;;2.63;;
64457;SDS011;58438;51.200;7.252;2022-11-15T16:20:51;5.45;;;2.13;;
64457;SDS011;58438;51.200;7.252;2022-11-15T16:23:43;6.22;;;2.85;;
64457;SDS011;58438;51.200;7.252;2022-11-15T16:26:31;3.58;;;2.67;;
64457;SDS011;58438;51.200;7.252;2022-11-15T16:29:19;3.40;;;2.47;;
64457;SDS011;58438;51.200;7.252;2022-11-15T16:32:07;3.80;;;2.45;;
64457;SDS011;58438;51.200;7.252;2022-11-15T16:34:54;3.45;;;2.60;;
64457;SDS011;58438;51.200;7.252;2022-11-15T16:37:41;5.38;;;2.85;;
64457;SDS011;58438;51.200;7.252;2022-11-15T16:40:32;4.05;;;2.30;;
64457;SDS011;58438;51.200;7.252;2022-11-15T16:43:20;3.85;;;2.50;;
64457;SDS011;58438;51.200;7.252;2022-11-15T16:46:08;3.80;;;2.60;;
64457;SDS011;58438;51.200;7.252;2022-11-15T16:48:58;4.90;;;2.80;;
64457;SDS011;58438;51.200;7.252;2022-11-15T16:51:46;3.53;;;2.55;;
64457;SDS011;58438;51.200;7.252;2022-11-15T16:54:34;6.07;;;2.70;;
64457;SDS011;58438;51.200;7.252;2022-11-15T16:57:22;5.00;;;2.97;;
64457;SDS011;58438;51.200;7.252;2022-11-15T17:00:10;4.35;;;2.50;;
64457;SDS011;58438;51.200;7.252;2022-11-15T17:02:58;4.88;;;2.90;;
64457;SDS011;58438;51.200;7.252;2022-11-15T17:05:45;3.45;;;2.67;;
64457;SDS011;58438;51.200;7.252;2022-11-15T17:08:32;3.50;;;2.88;;
64457;SDS011;58438;51.200;7.252;2022-11-15T17:11:20;4.28;;;3.00;;